sensor_id;sensor_type;location;lat;lon;timestamp;pressure;altitude;pressure_sealevel;temperature;humidity
63665;BME280;49820;33.966;73.390;2022-09-03T00:00:35;78669.75;;;15.86;100.00
63665;BME280;49820;33.966;73.390;2022-09-03T00:03:42;78652.81;;;15.73;100.00
63665;BME280;49820;33.966;73.390;2022-09-03T00:06:20;78676.44;;;15.87;100.00
63665;BME280;49820;33.966;73.390;2022-09-03T00:08:54;78681.41;;;15.97;100.00
63665;BME280;49820;33.966;73.390;2022-09-03T00:14:24;78670.81;;;16.24;100.00
63665;BME280;49820;33.966;73.390;2022-09-03T00:17:04;78684.81;;;16.44;100.00
63665;BME280;49820;33.966;73.390;2022-09-03T00:20:05;78679.72;;;16.52;100.00
63665;BME280;49820;33.966;73.390;2022-09-03T00:22:42;78684.75;;;16.60;100.00
63665;BME280;49820;33.966;73.390;2022-09-03T00:25:20;78678.66;;;16.62;100.00
63665;BME280;49820;33.966;73.390;2022-09-03T00:27:56;78678.66;;;16.62;100.00
63665;BME280;49820;33.966;73.390;2022-09-03T00:30:28;78666.41;;;16.48;100.00
63665;BME280;49820;33.966;73.390;2022-09-03T00:33:29;78687.28;;;16.64;100.00
63665;BME280;49820;33.966;73.390;2022-09-03T00:38:31;78695.94;;;16.67;100.00
63665;BME280;49820;33.966;73.390;2022-09-03T00:44:02;78651.22;;;16.40;100.00
63665;BME280;49820;33.966;73.390;2022-09-03T00:47:08;78685.81;;;16.67;100.00
63665;BME280;49820;33.966;73.390;2022-09-03T00:52:43;78685.91;;;16.65;100.00
63665;BME280;49820;33.966;73.390;2022-09-03T00:55:27;78689.91;;;16.66;100.00
63665;BME280;49820;33.966;73.390;2022-09-03T01:00:50;78691.00;;;16.71;100.00
63665;BME280;49820;33.966;73.390;2022-09-03T01:06:33;78687.31;;;16.79;100.00
63665;BME280;49820;33.966;73.390;2022-09-03T01:09:25;78697.19;;;16.85;100.00
63665;BME280;49820;33.966;73.390;2022-09-03T01:12:00;78698.00;;;16.81;100.00
63665;BME280;49820;33.966;73.390;2022-09-03T01:15:07;78669.06;;;16.65;100.00
63665;BME280;49820;33.966;73.390;2022-09-03T01:18:10;78700.91;;;16.92;100.00
63665;BME280;49820;33.966;73.390;2022-09-03T01:20:51;78707.50;;;16.95;100.00
63665;BME280;49820;33.966;73.390;2022-09-03T01:26:27;78715.72;;;16.93;100.00
63665;BME280;49820;33.966;73.390;2022-09-03T01:29:12;78708.44;;;16.89;100.00
63665;BME280;49820;33.966;73.390;2022-09-03T01:32:18;78705.00;;;16.91;100.00
63665;BME280;49820;33.966;73.390;2022-09-03T01:34:57;78711.50;;;16.96;100.00
63665;BME280;49820;33.966;73.390;2022-09-03T01:40:57;78717.03;;;17.38;100.00
63665;BME280;49820;33.966;73.390;2022-09-03T01:43:56;78710.81;;;17.41;100.00
63665;BME280;49820;33.966;73.390;2022-09-03T01:46:38;78704.66;;;17.28;100.00
63665;BME280;49820;33.966;73.390;2022-09-03T01:49:39;78714.53;;;17.34;100.00
63665;BME280;49820;33.966;73.390;2022-09-03T01:52:23;78715.63;;;17.53;100.00
63665;BME280;49820;33.966;73.390;2022-09-03T02:00:15;78706.97;;;17.80;100.00
63665;BME280;49820;33.966;73.390;2022-09-03T02:02:50;78726.03;;;18.33;100.00
63665;BME280;49820;33.966;73.390;2022-09-03T02:05:26;78724.94;;;18.70;100.00
63665;BME280;49820;33.966;73.390;2022-09-03T02:07:59;78722.25;;;18.28;100.00
63665;BME280;49820;33.966;73.390;2022-09-03T02:10:46;78725.72;;;18.81;100.00
63665;BME280;49820;33.966;73.390;2022-09-03T02:13:41;78723.53;;;19.24;100.00
63665;BME280;49820;33.966;73.390;2022-09-03T02:16:21;78732.78;;;19.41;100.00
63665;BME280;49820;33.966;73.390;2022-09-03T02:18:58;78706.81;;;19.85;100.00
63665;BME280;49820;33.966;73.390;2022-09-03T02:21:48;78724.78;;;20.15;100.00
63665;BME280;49820;33.966;73.390;2022-09-03T02:24:19;78716.09;;;20.13;100.00
63665;BME280;49820;33.966;73.390;2022-09-03T02:26:49;78723.53;;;20.50;100.00
63665;BME280;49820;33.966;73.390;2022-09-03T02:29:19;78726.56;;;20.57;100.00
63665;BME280;49820;33.966;73.390;2022-09-03T02:31:50;78735.94;;;20.83;100.00
63665;BME280;49820;33.966;73.390;2022-09-03T02:34:20;78721.44;;;21.00;100.00
63665;BME280;49820;33.966;73.390;2022-09-03T02:36:50;78724.94;;;21.21;100.00
63665;BME280;49820;33.966;73.390;2022-09-03T02:39:20;78729.28;;;21.63;100.00
63665;BME280;49820;33.966;73.390;2022-09-03T02:41:54;78735.16;;;21.21;100.00
63665;BME280;49820;33.966;73.390;2022-09-03T02:44:30;78738.22;;;20.79;100.00
63665;BME280;49820;33.966;73.390;2022-09-03T02:47:06;78702.31;;;20.66;100.00
63665;BME280;49820;33.966;73.390;2022-09-03T02:49:37;78732.38;;;21.91;100.00
63665;BME280;49820;33.966;73.390;2022-09-03T02:52:08;78743.81;;;22.49;100.00
63665;BME280;49820;33.966;73.390;2022-09-03T02:54:40;78736.31;;;22.49;100.00
63665;BME280;49820;33.966;73.390;2022-09-03T02:57:13;78733.69;;;22.47;100.00
63665;BME280;49820;33.966;73.390;2022-09-03T02:59:54;78745.66;;;22.52;100.00
63665;BME280;49820;33.966;73.390;2022-09-03T03:02:24;78724.97;;;22.23;100.00
63665;BME280;49820;33.966;73.390;2022-09-03T03:04:55;78735.28;;;22.44;100.00
63665;BME280;49820;33.966;73.390;2022-09-03T03:07:24;78748.06;;;23.22;100.00
63665;BME280;49820;33.966;73.390;2022-09-03T03:09:54;78740.41;;;22.93;100.00
63665;BME280;49820;33.966;73.390;2022-09-03T03:12:25;78727.69;;;21.89;100.00
63665;BME280;49820;33.966;73.390;2022-09-03T03:14:54;78741.94;;;22.13;100.00
63665;BME280;49820;33.966;73.390;2022-09-03T03:17:25;78743.25;;;22.25;100.00
63665;BME280;49820;33.966;73.390;2022-09-03T03:19:55;78744.38;;;22.72;100.00
63665;BME280;49820;33.966;73.390;2022-09-03T03:22:25;78754.56;;;23.16;100.00
63665;BME280;49820;33.966;73.390;2022-09-03T03:24:55;78749.78;;;22.40;100.00
63665;BME280;49820;33.966;73.390;2022-09-03T03:27:26;78739.88;;;21.56;100.00
63665;BME280;49820;33.966;73.390;2022-09-03T03:29:55;78748.84;;;21.19;100.00
63665;BME280;49820;33.966;73.390;2022-09-03T03:32:26;78748.69;;;20.62;100.00
63665;BME280;49820;33.966;73.390;2022-09-03T03:34:56;78743.22;;;20.13;100.00
63665;BME280;49820;33.966;73.390;2022-09-03T03:37:26;78741.47;;;19.95;100.00
63665;BME280;49820;33.966;73.390;2022-09-03T03:39:55;78746.69;;;19.99;100.00
63665;BME280;49820;33.966;73.390;2022-09-03T03:42:25;78758.50;;;20.06;100.00
63665;BME280;49820;33.966;73.390;2022-09-03T03:44:56;78735.09;;;20.00;100.00
63665;BME280;49820;33.966;73.390;2022-09-03T03:47:29;78738.75;;;20.20;100.00
63665;BME280;49820;33.966;73.390;2022-09-03T03:50:00;78761.91;;;20.80;100.00
63665;BME280;49820;33.966;73.390;2022-09-03T03:52:30;78754.13;;;20.98;100.00
63665;BME280;49820;33.966;73.390;2022-09-03T03:55:00;78764.41;;;21.44;100.00
63665;BME280;49820;33.966;73.390;2022-09-03T03:57:30;78753.34;;;21.58;100.00
63665;BME280;49820;33.966;73.390;2022-09-03T04:00:00;78759.69;;;21.31;100.00
63665;BME280;49820;33.966;73.390;2022-09-03T04:02:41;78764.25;;;20.99;100.00
63665;BME280;49820;33.966;73.390;2022-09-03T04:05:11;78775.81;;;20.74;100.00
63665;BME280;49820;33.966;73.390;2022-09-03T04:07:41;78759.59;;;20.36;100.00
63665;BME280;49820;33.966;73.390;2022-09-03T04:10:13;78772.19;;;20.16;100.00
63665;BME280;49820;33.966;73.390;2022-09-03T04:12:44;78766.00;;;20.18;100.00
63665;BME280;49820;33.966;73.390;2022-09-03T04:15:14;78775.44;;;20.32;100.00
63665;BME280;49820;33.966;73.390;2022-09-03T04:17:44;78772.19;;;20.04;100.00
63665;BME280;49820;33.966;73.390;2022-09-03T04:20:14;78769.47;;;20.04;100.00
63665;BME280;49820;33.966;73.390;2022-09-03T04:22:44;78776.97;;;20.16;100.00
63665;BME280;49820;33.966;73.390;2022-09-03T04:25:18;78782.22;;;20.69;100.00
63665;BME280;49820;33.966;73.390;2022-09-03T04:27:50;78782.22;;;20.81;100.00
63665;BME280;49820;33.966;73.390;2022-09-03T04:30:21;78772.81;;;21.40;100.00
63665;BME280;49820;33.966;73.390;2022-09-03T04:32:51;78780.22;;;21.75;100.00
63665;BME280;49820;33.966;73.390;2022-09-03T04:35:26;78771.84;;;21.56;100.00
63665;BME280;49820;33.966;73.390;2022-09-03T04:38:04;78709.19;;;20.88;100.00
63665;BME280;49820;33.966;73.390;2022-09-03T04:40:34;78757.22;;;21.15;100.00
63665;BME280;49820;33.966;73.390;2022-09-03T04:43:03;78779.91;;;21.92;100.00
63665;BME280;49820;33.966;73.390;2022-09-03T04:45:34;78772.31;;;22.39;100.00
63665;BME280;49820;33.966;73.390;2022-09-03T04:48:04;78764.25;;;22.81;100.00
63665;BME280;49820;33.966;73.390;2022-09-03T04:50:39;78787.94;;;22.72;100.00
63665;BME280;49820;33.966;73.390;2022-09-03T04:53:10;78764.53;;;22.33;100.00
63665;BME280;49820;33.966;73.390;2022-09-03T04:55:40;78786.56;;;22.29;100.00
63665;BME280;49820;33.966;73.390;2022-09-03T04:58:10;78766.53;;;22.11;100.00
63665;BME280;49820;33.966;73.390;2022-09-03T05:00:40;78758.25;;;22.13;100.00
63665;BME280;49820;33.966;73.390;2022-09-03T05:03:10;78771.69;;;21.81;100.00
63665;BME280;49820;33.966;73.390;2022-09-03T05:05:40;78756.25;;;21.44;100.00
63665;BME280;49820;33.966;73.390;2022-09-03T05:08:10;78748.28;;;21.86;100.00
63665;BME280;49820;33.966;73.390;2022-09-03T05:10:40;78744.78;;;22.22;100.00
63665;BME280;49820;33.966;73.390;2022-09-03T05:13:10;78742.00;;;22.00;100.00
63665;BME280;49820;33.966;73.390;2022-09-03T05:15:41;78767.22;;;21.88;100.00
63665;BME280;49820;33.966;73.390;2022-09-03T05:18:12;78767.16;;;21.78;100.00
63665;BME280;49820;33.966;73.390;2022-09-03T05:20:43;78768.03;;;21.74;100.00
63665;BME280;49820;33.966;73.390;2022-09-03T05:23:13;78762.91;;;21.57;100.00
63665;BME280;49820;33.966;73.390;2022-09-03T05:25:43;78758.91;;;21.56;100.00
63665;BME280;49820;33.966;73.390;2022-09-03T05:28:26;78757.91;;;21.62;100.00
63665;BME280;49820;33.966;73.390;2022-09-03T05:31:13;78773.47;;;22.31;100.00
63665;BME280;49820;33.966;73.390;2022-09-03T05:33:47;78763.22;;;22.32;100.00
63665;BME280;49820;33.966;73.390;2022-09-03T05:36:19;78769.81;;;22.69;100.00
63665;BME280;49820;33.966;73.390;2022-09-03T05:38:51;78768.66;;;22.87;100.00
63665;BME280;49820;33.966;73.390;2022-09-03T05:41:22;78767.66;;;23.14;99.34
63665;BME280;49820;33.966;73.390;2022-09-03T05:43:54;78755.59;;;23.32;92.38
63665;BME280;49820;33.966;73.390;2022-09-03T05:46:29;78764.16;;;23.58;91.01
63665;BME280;49820;33.966;73.390;2022-09-03T05:49:05;78763.50;;;23.04;98.84
63665;BME280;49820;33.966;73.390;2022-09-03T05:51:37;78769.09;;;22.47;100.00
63665;BME280;49820;33.966;73.390;2022-09-03T05:54:12;78756.69;;;22.16;100.00
63665;BME280;49820;33.966;73.390;2022-09-03T05:56:42;78760.50;;;22.21;100.00
63665;BME280;49820;33.966;73.390;2022-09-03T05:59:12;78755.84;;;22.86;100.00
63665;BME280;49820;33.966;73.390;2022-09-03T06:01:44;78754.47;;;24.72;100.00
63665;BME280;49820;33.966;73.390;2022-09-03T06:04:20;78735.72;;;25.54;97.00
63665;BME280;49820;33.966;73.390;2022-09-03T06:06:52;78748.75;;;25.34;82.89
63665;BME280;49820;33.966;73.390;2022-09-03T06:09:22;78733.88;;;25.61;86.60
63665;BME280;49820;33.966;73.390;2022-09-03T06:11:52;78746.16;;;26.54;76.76
63665;BME280;49820;33.966;73.390;2022-09-03T06:14:25;78749.47;;;26.09;73.89
63665;BME280;49820;33.966;73.390;2022-09-03T06:16:55;78753.34;;;25.46;88.89
63665;BME280;49820;33.966;73.390;2022-09-03T06:19:25;78747.97;;;24.67;86.61
63665;BME280;49820;33.966;73.390;2022-09-03T06:21:56;78735.97;;;24.02;90.55
63665;BME280;49820;33.966;73.390;2022-09-03T06:24:26;78758.13;;;23.87;98.41
63665;BME280;49820;33.966;73.390;2022-09-03T06:27:00;78755.81;;;23.71;100.00
63665;BME280;49820;33.966;73.390;2022-09-03T06:29:29;78727.94;;;24.41;98.74
63665;BME280;49820;33.966;73.390;2022-09-03T06:32:00;78740.00;;;26.17;76.68
63665;BME280;49820;33.966;73.390;2022-09-03T06:34:33;78735.25;;;26.26;100.00
63665;BME280;49820;33.966;73.390;2022-09-03T06:37:03;78735.38;;;24.91;86.27
63665;BME280;49820;33.966;73.390;2022-09-03T06:39:33;78743.63;;;24.51;91.54
63665;BME280;49820;33.966;73.390;2022-09-03T06:42:03;78734.03;;;24.01;90.19
63665;BME280;49820;33.966;73.390;2022-09-03T06:44:36;78736.59;;;23.73;93.14
63665;BME280;49820;33.966;73.390;2022-09-03T06:47:06;78730.66;;;23.49;100.00
63665;BME280;49820;33.966;73.390;2022-09-03T06:49:36;78711.03;;;23.46;96.37
63665;BME280;49820;33.966;73.390;2022-09-03T06:52:08;78741.28;;;23.42;100.00
63665;BME280;49820;33.966;73.390;2022-09-03T06:54:37;78735.59;;;23.57;96.90
63665;BME280;49820;33.966;73.390;2022-09-03T06:57:10;78736.72;;;23.60;100.00
63665;BME280;49820;33.966;73.390;2022-09-03T06:59:40;78697.19;;;23.91;100.00
63665;BME280;49820;33.966;73.390;2022-09-03T07:02:12;78723.66;;;23.92;100.00
63665;BME280;49820;33.966;73.390;2022-09-03T07:04:43;78717.19;;;23.87;100.00
63665;BME280;49820;33.966;73.390;2022-09-03T07:07:15;78714.41;;;23.57;100.00
63665;BME280;49820;33.966;73.390;2022-09-03T07:09:45;78715.72;;;23.37;100.00
63665;BME280;49820;33.966;73.390;2022-09-03T07:12:15;78706.94;;;24.28;96.03
63665;BME280;49820;33.966;73.390;2022-09-03T07:14:47;78686.09;;;25.96;91.04
63665;BME280;49820;33.966;73.390;2022-09-03T07:17:20;78706.25;;;27.54;86.39
63665;BME280;49820;33.966;73.390;2022-09-03T07:19:50;78702.00;;;28.32;79.33
63665;BME280;49820;33.966;73.390;2022-09-03T07:22:20;78687.41;;;28.51;70.73
63665;BME280;49820;33.966;73.390;2022-09-03T07:24:58;78710.63;;;27.59;68.03
63665;BME280;49820;33.966;73.390;2022-09-03T07:27:28;78700.06;;;28.89;63.18
63665;BME280;49820;33.966;73.390;2022-09-03T07:29:59;78696.97;;;26.97;70.28
63665;BME280;49820;33.966;73.390;2022-09-03T07:32:28;78707.41;;;26.86;74.96
63665;BME280;49820;33.966;73.390;2022-09-03T07:34:58;78698.09;;;26.46;80.84
63665;BME280;49820;33.966;73.390;2022-09-03T07:37:28;78668.63;;;26.55;73.51
63665;BME280;49820;33.966;73.390;2022-09-03T07:39:58;78689.72;;;28.14;82.62
63665;BME280;49820;33.966;73.390;2022-09-03T07:42:30;78705.47;;;28.65;83.87
63665;BME280;49820;33.966;73.390;2022-09-03T07:45:01;78691.72;;;27.47;79.36
63665;BME280;49820;33.966;73.390;2022-09-03T07:47:33;78668.97;;;25.87;78.64
63665;BME280;49820;33.966;73.390;2022-09-03T07:50:04;78681.34;;;25.77;83.91
63665;BME280;49820;33.966;73.390;2022-09-03T07:52:34;78677.72;;;25.62;84.61
63665;BME280;49820;33.966;73.390;2022-09-03T07:55:04;78671.91;;;26.84;80.54
63665;BME280;49820;33.966;73.390;2022-09-03T07:57:36;78668.94;;;27.31;89.53
63665;BME280;49820;33.966;73.390;2022-09-03T08:00:07;78673.03;;;28.51;82.40
63665;BME280;49820;33.966;73.390;2022-09-03T08:02:41;78671.84;;;27.29;80.36
63665;BME280;49820;33.966;73.390;2022-09-03T08:05:13;78679.47;;;26.66;79.14
63665;BME280;49820;33.966;73.390;2022-09-03T08:07:43;78662.31;;;26.12;79.62
63665;BME280;49820;33.966;73.390;2022-09-03T08:10:14;78661.88;;;25.81;80.67
63665;BME280;49820;33.966;73.390;2022-09-03T08:12:44;78656.81;;;26.03;81.67
63665;BME280;49820;33.966;73.390;2022-09-03T08:15:15;78659.59;;;26.12;83.16
63665;BME280;49820;33.966;73.390;2022-09-03T08:17:44;78642.75;;;25.90;83.59
63665;BME280;49820;33.966;73.390;2022-09-03T08:20:16;78663.34;;;25.33;81.05
63665;BME280;49820;33.966;73.390;2022-09-03T08:22:46;78634.59;;;25.99;83.67
63665;BME280;49820;33.966;73.390;2022-09-03T08:25:17;78649.91;;;27.20;79.16
63665;BME280;49820;33.966;73.390;2022-09-03T08:27:47;78633.13;;;27.67;73.38
63665;BME280;49820;33.966;73.390;2022-09-03T08:30:17;78635.03;;;27.09;85.23
63665;BME280;49820;33.966;73.390;2022-09-03T08:32:49;78621.31;;;28.44;75.09
63665;BME280;49820;33.966;73.390;2022-09-03T08:35:20;78624.91;;;28.75;71.47
63665;BME280;49820;33.966;73.390;2022-09-03T08:37:50;78630.06;;;28.38;64.14
63665;BME280;49820;33.966;73.390;2022-09-03T08:40:24;78613.69;;;27.95;64.37
63665;BME280;49820;33.966;73.390;2022-09-03T08:45:36;78598.72;;;28.76;64.14
63665;BME280;49820;33.966;73.390;2022-09-03T08:48:15;78607.16;;;28.25;72.61
63665;BME280;49820;33.966;73.390;2022-09-03T08:50:53;78604.69;;;28.70;67.64
63665;BME280;49820;33.966;73.390;2022-09-03T08:53:39;78599.63;;;27.99;64.52
63665;BME280;49820;33.966;73.390;2022-09-03T08:56:36;78595.53;;;26.97;71.65
63665;BME280;49820;33.966;73.390;2022-09-03T08:59:09;78585.34;;;26.16;76.38
63665;BME280;49820;33.966;73.390;2022-09-03T09:07:23;78598.69;;;25.66;78.67
63665;BME280;49820;33.966;73.390;2022-09-03T09:10:07;78582.78;;;27.11;76.43
63665;BME280;49820;33.966;73.390;2022-09-03T09:21:46;78581.25;;;25.89;75.71
63665;BME280;49820;33.966;73.390;2022-09-03T09:24:25;78584.91;;;24.93;82.94
63665;BME280;49820;33.966;73.390;2022-09-03T09:26:59;78584.59;;;24.31;89.17
63665;BME280;49820;33.966;73.390;2022-09-03T09:29:35;78581.13;;;23.92;100.00
63665;BME280;49820;33.966;73.390;2022-09-03T09:32:08;78576.88;;;24.33;100.00
63665;BME280;49820;33.966;73.390;2022-09-03T09:34:40;78549.28;;;26.22;88.28
63665;BME280;49820;33.966;73.390;2022-09-03T09:37:15;78554.00;;;26.32;73.77
63665;BME280;49820;33.966;73.390;2022-09-03T09:39:58;78550.75;;;24.84;85.63
63665;BME280;49820;33.966;73.390;2022-09-03T09:42:29;78566.38;;;24.27;86.97
63665;BME280;49820;33.966;73.390;2022-09-03T09:45:09;78548.81;;;23.67;89.30
63665;BME280;49820;33.966;73.390;2022-09-03T09:47:40;78562.78;;;23.41;100.00
63665;BME280;49820;33.966;73.390;2022-09-03T09:50:20;78533.69;;;23.38;99.14
63665;BME280;49820;33.966;73.390;2022-09-03T09:53:08;78543.53;;;23.13;99.64
63665;BME280;49820;33.966;73.390;2022-09-03T09:55:53;78545.13;;;24.39;98.13
63665;BME280;49820;33.966;73.390;2022-09-03T09:58:25;78535.16;;;23.67;100.00
63665;BME280;49820;33.966;73.390;2022-09-03T10:01:11;78541.03;;;23.20;100.00
63665;BME280;49820;33.966;73.390;2022-09-03T10:04:00;78529.59;;;22.88;100.00
63665;BME280;49820;33.966;73.390;2022-09-03T10:06:36;78515.56;;;23.34;100.00
63665;BME280;49820;33.966;73.390;2022-09-03T10:09:27;78515.03;;;24.77;100.00
63665;BME280;49820;33.966;73.390;2022-09-03T10:12:22;78529.16;;;24.13;100.00
63665;BME280;49820;33.966;73.390;2022-09-03T10:20:48;78517.66;;;24.41;100.00
63665;BME280;49820;33.966;73.390;2022-09-03T10:23:25;78516.13;;;24.71;100.00
63665;BME280;49820;33.966;73.390;2022-09-03T10:26:09;78506.88;;;24.19;98.75
63665;BME280;49820;33.966;73.390;2022-09-03T10:28:41;78511.25;;;23.67;100.00
63665;BME280;49820;33.966;73.390;2022-09-03T10:51:24;78502.41;;;24.63;100.00
63665;BME280;49820;33.966;73.390;2022-09-03T11:02:16;78495.72;;;22.95;100.00
63665;BME280;49820;33.966;73.390;2022-09-03T11:05:15;78490.16;;;22.87;100.00
63665;BME280;49820;33.966;73.390;2022-09-03T11:07:51;78478.03;;;22.64;100.00
63665;BME280;49820;33.966;73.390;2022-09-03T11:10:37;78471.56;;;23.00;100.00
63665;BME280;49820;33.966;73.390;2022-09-03T11:13:33;78492.69;;;23.10;100.00
63665;BME280;49820;33.966;73.390;2022-09-03T11:16:14;78495.53;;;22.78;100.00
63665;BME280;49820;33.966;73.390;2022-09-03T11:18:53;78485.97;;;22.47;100.00
63665;BME280;49820;33.966;73.390;2022-09-03T11:21:26;78459.50;;;22.56;100.00
63665;BME280;49820;33.966;73.390;2022-09-03T11:24:12;78472.16;;;23.11;100.00
63665;BME280;49820;33.966;73.390;2022-09-03T11:26:46;78468.75;;;23.21;100.00
63665;BME280;49820;33.966;73.390;2022-09-03T11:32:39;78466.75;;;23.30;100.00
63665;BME280;49820;33.966;73.390;2022-09-03T11:35:36;78478.66;;;24.04;100.00
63665;BME280;49820;33.966;73.390;2022-09-03T11:38:20;78466.38;;;24.32;100.00
63665;BME280;49820;33.966;73.390;2022-09-03T11:41:13;78476.66;;;23.55;100.00
63665;BME280;49820;33.966;73.390;2022-09-03T11:43:44;78470.69;;;23.52;100.00
63665;BME280;49820;33.966;73.390;2022-09-03T11:49:07;78467.78;;;22.75;100.00
63665;BME280;49820;33.966;73.390;2022-09-03T11:51:40;78464.19;;;22.47;100.00
63665;BME280;49820;33.966;73.390;2022-09-03T11:56:47;78460.78;;;21.85;100.00
63665;BME280;49820;33.966;73.390;2022-09-03T11:59:23;78469.72;;;21.62;100.00
63665;BME280;49820;33.966;73.390;2022-09-03T12:02:14;78476.31;;;21.44;100.00
63665;BME280;49820;33.966;73.390;2022-09-03T12:08:00;78474.22;;;21.44;100.00
63665;BME280;49820;33.966;73.390;2022-09-03T12:10:50;78468.81;;;21.44;100.00
63665;BME280;49820;33.966;73.390;2022-09-03T12:13:28;78477.19;;;21.19;100.00
63665;BME280;49820;33.966;73.390;2022-09-03T12:18:54;78443.50;;;21.14;100.00
63665;BME280;49820;33.966;73.390;2022-09-03T12:21:29;78469.31;;;21.36;100.00
63665;BME280;49820;33.966;73.390;2022-09-03T12:24:01;78463.34;;;21.23;100.00
63665;BME280;49820;33.966;73.390;2022-09-03T12:26:39;78463.31;;;21.12;100.00
63665;BME280;49820;33.966;73.390;2022-09-03T12:29:23;78463.25;;;20.91;100.00
63665;BME280;49820;33.966;73.390;2022-09-03T12:32:03;78461.41;;;20.77;100.00
63665;BME280;49820;33.966;73.390;2022-09-03T12:34:34;78431.59;;;20.53;100.00
63665;BME280;49820;33.966;73.390;2022-09-03T12:37:17;78442.22;;;20.58;100.00
63665;BME280;49820;33.966;73.390;2022-09-03T12:40:25;78442.47;;;20.53;100.00
63665;BME280;49820;33.966;73.390;2022-09-03T12:43:13;78448.22;;;20.37;100.00
63665;BME280;49820;33.966;73.390;2022-09-03T12:46:12;78440.31;;;20.33;100.00
63665;BME280;49820;33.966;73.390;2022-09-03T12:49:13;78461.78;;;20.37;100.00
63665;BME280;49820;33.966;73.390;2022-09-03T12:52:02;78439.03;;;20.08;100.00
63665;BME280;49820;33.966;73.390;2022-09-03T12:54:40;78426.72;;;19.99;100.00
63665;BME280;49820;33.966;73.390;2022-09-03T12:57:21;78443.81;;;20.08;100.00
63665;BME280;49820;33.966;73.390;2022-09-03T12:59:57;78445.88;;;20.07;100.00
63665;BME280;49820;33.966;73.390;2022-09-03T13:02:53;78445.16;;;19.96;100.00
63665;BME280;49820;33.966;73.390;2022-09-03T13:05:43;78457.75;;;20.02;100.00
63665;BME280;49820;33.966;73.390;2022-09-03T13:08:33;78446.00;;;19.82;100.00
63665;BME280;49820;33.966;73.390;2022-09-03T13:11:08;78446.47;;;19.74;100.00
63665;BME280;49820;33.966;73.390;2022-09-03T13:14:25;78462.53;;;19.78;100.00
63665;BME280;49820;33.966;73.390;2022-09-03T13:16:54;78455.47;;;19.70;100.00
63665;BME280;49820;33.966;73.390;2022-09-03T13:22:32;78452.91;;;19.68;100.00
63665;BME280;49820;33.966;73.390;2022-09-03T13:25:24;78449.94;;;19.72;100.00
63665;BME280;49820;33.966;73.390;2022-09-03T13:28:41;78453.97;;;19.73;100.00
63665;BME280;49820;33.966;73.390;2022-09-03T13:31:28;78445.44;;;19.69;100.00
63665;BME280;49820;33.966;73.390;2022-09-03T13:34:21;78441.22;;;19.59;100.00
63665;BME280;49820;33.966;73.390;2022-09-03T13:36:58;78455.31;;;19.62;100.00
63665;BME280;49820;33.966;73.390;2022-09-03T13:39:58;78443.09;;;19.50;100.00
63665;BME280;49820;33.966;73.390;2022-09-03T13:42:36;78445.59;;;19.41;100.00
63665;BME280;49820;33.966;73.390;2022-09-03T13:45:22;78453.06;;;19.54;100.00
63665;BME280;49820;33.966;73.390;2022-09-03T14:05:16;78445.75;;;19.27;100.00
63665;BME280;49820;33.966;73.390;2022-09-03T14:07:53;78462.13;;;19.25;100.00
63665;BME280;49820;33.966;73.390;2022-09-03T14:13:49;78462.13;;;19.25;100.00
63665;BME280;49820;33.966;73.390;2022-09-03T14:16:44;78458.22;;;19.22;100.00
63665;BME280;49820;33.966;73.390;2022-09-03T14:19:47;78465.19;;;19.19;100.00
63665;BME280;49820;33.966;73.390;2022-09-03T14:25:19;78464.47;;;18.95;100.00
63665;BME280;49820;33.966;73.390;2022-09-03T14:27:50;78478.88;;;18.91;100.00
63665;BME280;49820;33.966;73.390;2022-09-03T14:30:37;78481.91;;;18.85;100.00
63665;BME280;49820;33.966;73.390;2022-09-03T14:33:29;78479.22;;;18.73;100.00
63665;BME280;49820;33.966;73.390;2022-09-03T14:38:50;78476.72;;;18.56;100.00
63665;BME280;49820;33.966;73.390;2022-09-03T14:44:22;78479.63;;;18.39;100.00
63665;BME280;49820;33.966;73.390;2022-09-03T14:55:33;78476.00;;;17.92;100.00
63665;BME280;49820;33.966;73.390;2022-09-03T14:58:34;78472.63;;;17.66;100.00
63665;BME280;49820;33.966;73.390;2022-09-03T15:01:16;78489.06;;;17.75;100.00
63665;BME280;49820;33.966;73.390;2022-09-03T15:07:10;78485.28;;;17.55;100.00
63665;BME280;49820;33.966;73.390;2022-09-03T15:13:19;78500.69;;;17.44;100.00
63665;BME280;49820;33.966;73.390;2022-09-03T15:27:45;78499.81;;;17.35;100.00
63665;BME280;49820;33.966;73.390;2022-09-03T15:30:19;78491.16;;;17.32;100.00
63665;BME280;49820;33.966;73.390;2022-09-03T15:33:02;78490.09;;;17.40;100.00
63665;BME280;49820;33.966;73.390;2022-09-03T15:35:56;78483.06;;;17.32;100.00
63665;BME280;49820;33.966;73.390;2022-09-03T15:38:44;78490.41;;;17.34;100.00
63665;BME280;49820;33.966;73.390;2022-09-03T15:44:15;78494.13;;;17.41;100.00
63665;BME280;49820;33.966;73.390;2022-09-03T15:46:49;78497.47;;;17.41;100.00
63665;BME280;49820;33.966;73.390;2022-09-03T15:55:14;78501.34;;;17.44;100.00
63665;BME280;49820;33.966;73.390;2022-09-03T16:03:34;78500.38;;;17.65;100.00
63665;BME280;49820;33.966;73.390;2022-09-03T16:15:09;78500.06;;;17.71;100.00
63665;BME280;49820;33.966;73.390;2022-09-03T16:18:01;78499.09;;;17.76;100.00
63665;BME280;49820;33.966;73.390;2022-09-03T16:20:43;78497.69;;;17.77;100.00
63665;BME280;49820;33.966;73.390;2022-09-03T16:23:20;78497.50;;;17.81;100.00
63665;BME280;49820;33.966;73.390;2022-09-03T16:26:02;78498.03;;;17.84;100.00
63665;BME280;49820;33.966;73.390;2022-09-03T16:28:53;78498.59;;;17.86;100.00
63665;BME280;49820;33.966;73.390;2022-09-03T16:40:32;78495.03;;;17.90;100.00